createdAt,value
2023-11-20T00:01:25.851Z,99076.63
2023-11-20T00:03:57.438Z,99075.80
2023-11-20T00:06:29.052Z,99074.61
2023-11-20T00:09:00.739Z,99072.42
2023-11-20T00:11:32.178Z,99065.66
2023-11-20T00:14:03.454Z,99063.73
2023-11-20T00:16:34.778Z,99062.66
2023-11-20T00:19:07.790Z,99063.48
2023-11-20T00:21:42.032Z,99060.13
2023-11-20T00:24:13.508Z,99058.20
2023-11-20T00:26:45.013Z,99055.64
2023-11-20T00:29:17.205Z,99056.48
2023-11-20T00:31:48.636Z,99057.63
2023-11-20T00:34:20.007Z,99059.66
2023-11-20T00:36:51.251Z,99062.10
2023-11-20T00:39:22.550Z,99063.14
2023-11-20T00:41:53.804Z,99063.94
2023-11-20T00:44:25.082Z,99062.80
2023-11-20T00:46:56.413Z,99066.70
2023-11-20T00:49:27.801Z,99069.28
2023-11-20T00:51:59.190Z,99075.02
2023-11-20T00:54:30.549Z,99076.23
2023-11-20T00:57:01.883Z,99085.81
2023-11-20T00:59:33.245Z,99082.68
2023-11-20T01:02:05.178Z,99085.27
2023-11-20T01:04:38.109Z,99089.48
2023-11-20T01:07:09.995Z,99092.38
2023-11-20T01:09:43.880Z,99092.03
2023-11-20T01:12:16.360Z,99090.07
2023-11-20T01:14:49.154Z,99089.66
2023-11-20T01:17:20.538Z,99095.00
2023-11-20T01:19:52.232Z,99096.75
2023-11-20T01:22:23.496Z,99099.75
2023-11-20T01:24:54.815Z,99100.48
2023-11-20T01:27:26.099Z,99100.56
2023-11-20T01:29:57.544Z,99099.64
2023-11-20T01:32:28.860Z,99105.10
2023-11-20T01:35:00.415Z,99110.58
2023-11-20T01:37:31.813Z,99111.17
2023-11-20T01:40:05.697Z,99111.91
2023-11-20T01:42:37.100Z,99108.64
2023-11-20T01:45:09.976Z,99106.89
2023-11-20T01:47:41.924Z,99098.71
2023-11-20T01:50:15.903Z,99096.54
2023-11-20T01:52:51.461Z,99089.58
2023-11-20T01:55:23.675Z,99093.21
2023-11-20T01:57:55.345Z,99093.02
2023-11-20T02:00:28.010Z,99094.65
2023-11-20T02:03:00.001Z,99089.13
2023-11-20T02:05:31.333Z,99087.33
2023-11-20T02:08:03.049Z,99085.41
2023-11-20T02:10:35.434Z,99078.71
2023-11-20T02:13:07.603Z,99075.55
2023-11-20T02:15:39.799Z,99074.23
2023-11-20T02:18:30.559Z,99077.52
2023-11-20T02:21:02.280Z,99077.90
2023-11-20T02:23:33.773Z,99075.02
2023-11-20T02:26:26.082Z,99075.98
2023-11-20T02:29:06.393Z,99070.84
2023-11-20T02:31:37.823Z,99072.48
2023-11-20T02:34:10.299Z,99071.61
2023-11-20T02:36:42.009Z,99073.94
2023-11-20T02:39:13.870Z,99064.72
2023-11-20T02:41:46.324Z,99064.48
2023-11-20T02:44:17.614Z,99060.59
2023-11-20T02:46:48.962Z,99055.84
2023-11-20T02:49:20.322Z,99063.56
2023-11-20T02:51:52.101Z,99065.89
2023-11-20T02:54:23.621Z,99063.89
2023-11-20T02:56:54.887Z,99059.83
2023-11-20T02:59:26.234Z,99061.58
2023-11-20T03:01:57.667Z,99055.98
2023-11-20T03:04:29.758Z,99058.13
2023-11-20T03:07:01.097Z,99051.70
2023-11-20T03:09:32.502Z,99053.14
2023-11-20T03:12:05.477Z,99056.11
2023-11-20T03:14:36.873Z,99056.45
2023-11-20T03:17:08.922Z,99052.06
2023-11-20T03:19:40.827Z,99052.17
2023-11-20T03:22:12.152Z,99049.99
2023-11-20T03:24:43.602Z,99050.79
2023-11-20T03:27:14.878Z,99053.45
2023-11-20T03:29:47.314Z,99060.66
2023-11-20T03:32:18.553Z,99058.18
2023-11-20T03:34:49.985Z,99056.59
2023-11-20T03:37:21.318Z,99055.27
2023-11-20T03:39:52.645Z,99055.95
2023-11-20T03:42:24.382Z,99055.21
2023-11-20T03:44:55.694Z,99053.65
2023-11-20T03:47:27.869Z,99060.77
2023-11-20T03:49:59.201Z,99060.56
2023-11-20T03:52:30.645Z,99055.87
2023-11-20T03:55:02.008Z,99051.03
2023-11-20T03:57:33.838Z,99054.91
2023-11-20T04:00:06.189Z,99058.59
2023-11-20T04:02:37.527Z,99061.39
2023-11-20T04:05:10.332Z,99064.84
2023-11-20T04:07:40.202Z,99066.89
2023-11-20T04:10:12.868Z,99068.23
2023-11-20T04:12:42.833Z,99072.42
2023-11-20T04:15:14.621Z,99075.94
2023-11-20T04:17:47.206Z,99082.20
2023-11-20T04:20:19.198Z,99075.96
2023-11-20T04:22:51.149Z,99072.81
2023-11-20T04:25:22.550Z,99075.78
2023-11-20T04:27:54.169Z,99067.58
2023-11-20T04:30:25.640Z,99062.53
2023-11-20T04:32:57.030Z,99062.68
2023-11-20T04:35:28.415Z,99060.83
2023-11-20T04:37:59.664Z,99066.14
2023-11-20T04:40:30.988Z,99065.63
2023-11-20T04:43:02.261Z,99067.21
2023-11-20T04:45:33.888Z,99068.50
2023-11-20T04:48:05.877Z,99067.27
2023-11-20T04:50:37.400Z,99061.59
2023-11-20T04:53:08.652Z,99064.11
2023-11-20T04:55:39.995Z,99065.48
2023-11-20T04:58:11.350Z,99063.76
2023-11-20T05:00:43.175Z,99066.16
2023-11-20T05:03:14.670Z,99066.13
2023-11-20T05:05:47.546Z,99072.52
2023-11-20T05:08:18.817Z,99081.52
2023-11-20T05:10:50.120Z,99083.61
2023-11-20T05:13:21.383Z,99081.36
2023-11-20T05:15:52.660Z,99087.27
2023-11-20T05:18:24.060Z,99075.93
2023-11-20T05:20:55.448Z,99077.56
2023-11-20T05:23:26.777Z,99075.63
2023-11-20T05:25:58.055Z,99071.90
2023-11-20T05:28:30.274Z,99069.05
2023-11-20T05:31:01.740Z,99071.14
2023-11-20T05:33:33.235Z,99068.21
2023-11-20T05:36:04.956Z,99064.29
2023-11-20T05:38:36.549Z,99066.08
2023-11-20T05:41:08.132Z,99069.11
2023-11-20T05:43:41.329Z,99069.84
2023-11-20T05:46:15.790Z,99065.35
2023-11-20T05:48:47.273Z,99065.89
2023-11-20T05:51:21.696Z,99063.56
2023-11-20T05:53:52.930Z,99065.25
2023-11-20T05:56:24.218Z,99067.39
2023-11-20T05:58:55.453Z,99069.31
2023-11-20T06:01:27.688Z,99063.33
2023-11-20T06:03:59.659Z,99065.00
2023-11-20T06:06:31.211Z,99057.09
2023-11-20T06:09:05.284Z,99060.27
2023-11-20T06:11:36.604Z,99057.17
2023-11-20T06:14:08.984Z,99062.60
2023-11-20T06:16:40.456Z,99065.75
2023-11-20T06:19:11.885Z,99067.98
2023-11-20T06:21:49.993Z,99067.55
2023-11-20T06:24:22.968Z,99064.92
2023-11-20T06:26:54.526Z,99067.02
2023-11-20T06:29:26.105Z,99073.80
2023-11-20T06:31:57.484Z,99074.91
2023-11-20T06:34:28.962Z,99075.52
2023-11-20T06:37:00.252Z,99077.91
2023-11-20T06:39:31.714Z,99083.81
2023-11-20T06:42:03.029Z,99088.13
2023-11-20T06:44:34.370Z,99090.41
2023-11-20T06:47:08.988Z,99081.83
2023-11-20T06:49:41.363Z,99080.69
2023-11-20T06:52:12.698Z,99075.46
2023-11-20T06:54:44.875Z,99082.42
2023-11-20T06:57:16.366Z,99086.50
2023-11-20T06:59:47.741Z,99089.44
2023-11-20T07:02:22.450Z,99089.19
2023-11-20T07:04:54.081Z,99095.59
2023-11-20T07:07:25.761Z,99101.70
2023-11-20T07:09:57.318Z,99104.67
2023-11-20T07:12:28.621Z,99104.30
2023-11-20T07:14:59.904Z,99115.47
2023-11-20T07:17:31.236Z,99121.28
2023-11-20T07:20:03.191Z,99119.79
2023-11-20T07:22:34.456Z,99125.50
2023-11-20T07:25:06.821Z,99123.75
2023-11-20T07:27:39.512Z,99134.02
2023-11-20T07:30:14.037Z,99136.91
2023-11-20T07:32:45.453Z,99135.01
2023-11-20T07:35:16.792Z,99134.73
2023-11-20T07:37:48.145Z,99135.42
2023-11-20T07:40:19.846Z,99136.00
2023-11-20T07:42:51.529Z,99138.70
2023-11-20T07:45:25.115Z,99135.79
2023-11-20T07:47:56.419Z,99134.02
2023-11-20T07:50:27.786Z,99133.46
2023-11-20T07:53:00.264Z,99135.10
2023-11-20T07:55:31.563Z,99129.94
2023-11-20T07:58:02.926Z,99123.79
2023-11-20T08:00:34.911Z,99121.32
2023-11-20T08:03:06.568Z,99128.12
2023-11-20T08:05:47.735Z,99130.55
2023-11-20T08:08:20.688Z,99133.77
2023-11-20T08:10:52.557Z,99133.44
2023-11-20T08:13:23.988Z,99135.94
2023-11-20T08:15:55.412Z,99135.36
2023-11-20T08:18:26.891Z,99128.05
2023-11-20T08:20:58.195Z,99127.27
2023-11-20T08:23:29.410Z,99126.16
2023-11-20T08:26:00.698Z,99123.42
2023-11-20T08:28:31.915Z,99122.00
2023-11-20T08:31:03.201Z,99122.23
2023-11-20T08:33:34.601Z,99122.45
2023-11-20T08:36:08.513Z,99124.33
2023-11-20T08:38:39.838Z,99123.77
2023-11-20T08:41:11.162Z,99128.98
2023-11-20T08:43:42.433Z,99131.77
2023-11-20T08:46:15.964Z,99138.20
2023-11-20T08:48:47.849Z,99136.42
2023-11-20T08:51:20.209Z,99140.27
2023-11-20T08:53:51.747Z,99137.85
2023-11-20T08:56:23.378Z,99146.95
2023-11-20T08:58:54.719Z,99145.20
2023-11-20T09:01:36.167Z,99148.29
2023-11-20T09:04:10.701Z,99150.84
2023-11-20T09:06:42.515Z,99154.42
2023-11-20T09:09:14.667Z,99154.44
2023-11-20T09:11:46.203Z,99144.71
2023-11-20T09:14:17.890Z,99141.16
2023-11-20T09:16:49.284Z,99145.40
2023-11-20T09:19:21.147Z,99143.45
2023-11-20T09:21:52.805Z,99145.05
2023-11-20T09:24:24.198Z,99143.25
2023-11-20T09:26:55.658Z,99145.40
2023-11-20T09:29:26.997Z,99144.36
2023-11-20T09:31:58.405Z,99146.34
2023-11-20T09:34:30.990Z,99146.96
2023-11-20T09:37:02.357Z,99137.73
2023-11-20T09:39:33.855Z,99135.02
2023-11-20T09:42:05.554Z,99136.44
2023-11-20T09:44:39.459Z,99133.08
2023-11-20T09:47:12.376Z,99138.80
2023-11-20T09:49:46.651Z,99130.58
2023-11-20T09:52:19.288Z,99127.67
2023-11-20T09:54:53.232Z,99129.82
2023-11-20T09:57:27.582Z,99132.20
2023-11-20T09:59:59.013Z,99132.91
2023-11-20T10:02:32.354Z,99130.91
2023-11-20T10:05:05.825Z,99129.76
2023-11-20T10:07:41.179Z,99132.22
2023-11-20T10:10:14.807Z,99138.64
2023-11-20T10:12:48.928Z,99134.42
2023-11-20T10:15:22.646Z,99132.73
2023-11-20T10:17:54.285Z,99126.79
2023-11-20T10:20:27.849Z,99128.77
2023-11-20T10:23:00.226Z,99133.92
2023-11-20T10:25:32.848Z,99127.95
2023-11-20T10:28:05.477Z,99121.85
2023-11-20T10:30:36.812Z,99122.80
2023-11-20T10:33:16.177Z,99112.53
2023-11-20T10:35:47.984Z,99103.79
2023-11-20T10:38:19.821Z,99103.13
2023-11-20T10:40:52.006Z,99093.89
2023-11-20T10:43:23.297Z,99085.98
2023-11-20T10:45:54.780Z,99077.89
2023-11-20T10:48:32.918Z,99078.83
2023-11-20T10:51:09.803Z,99077.59
2023-11-20T10:53:43.093Z,99074.63
2023-11-20T10:56:15.758Z,99070.31
2023-11-20T10:58:48.496Z,99075.63
2023-11-20T11:01:20.195Z,99070.98
2023-11-20T11:03:53.323Z,99067.46
2023-11-20T11:06:26.324Z,99062.17
2023-11-20T11:09:00.901Z,99061.05
2023-11-20T11:11:34.319Z,99055.71
2023-11-20T11:14:05.674Z,99054.91
2023-11-20T11:16:44.276Z,99057.44
2023-11-20T11:19:18.927Z,99054.23
2023-11-20T11:21:58.576Z,99049.71
2023-11-20T11:24:34.647Z,99048.09
2023-11-20T11:27:12.320Z,99045.28
2023-11-20T11:29:48.651Z,99047.89
2023-11-20T11:32:49.191Z,99048.88
2023-11-20T11:35:35.273Z,99036.73
2023-11-20T11:38:14.014Z,99032.50
2023-11-20T11:40:50.320Z,99029.90
2023-11-20T11:43:32.381Z,99028.64
2023-11-20T11:46:05.178Z,99030.62
2023-11-20T11:48:40.481Z,99027.11
2023-11-20T11:51:25.685Z,99027.67
2023-11-20T11:54:17.731Z,99020.80
2023-11-20T11:57:02.819Z,99020.38
2023-11-20T11:59:40.944Z,99018.48
2023-11-20T12:02:14.385Z,99016.98
2023-11-20T12:05:09.358Z,99015.45
2023-11-20T12:07:56.079Z,99011.58
2023-11-20T12:10:44.829Z,99007.00
2023-11-20T12:13:17.954Z,99000.70
2023-11-20T12:15:52.632Z,98999.72
2023-11-20T12:18:25.792Z,98997.66
2023-11-20T12:21:08.245Z,98993.73
2023-11-20T12:23:40.738Z,98995.08
2023-11-20T12:26:13.596Z,98992.98
2023-11-20T12:28:46.021Z,98989.02
2023-11-20T12:31:17.503Z,98986.89
2023-11-20T12:33:49.348Z,98987.42
2023-11-20T12:36:25.594Z,98985.46
2023-11-20T12:38:59.705Z,98984.45
2023-11-20T12:41:31.357Z,98987.73
2023-11-20T12:44:02.968Z,98985.28
2023-11-20T12:46:34.452Z,98985.86
2023-11-20T12:49:06.024Z,98979.95
2023-11-20T12:51:38.552Z,98979.12
2023-11-20T12:54:10.205Z,98977.95
2023-11-20T12:56:41.589Z,98976.38
2023-11-20T12:59:14.222Z,98973.73
2023-11-20T13:01:45.605Z,98968.73
2023-11-20T13:04:17.159Z,98965.61
2023-11-20T13:06:50.144Z,98967.84
2023-11-20T13:09:21.663Z,98975.08
2023-11-20T13:11:56.329Z,98968.70
2023-11-20T13:14:28.398Z,98975.58
2023-11-20T13:17:00.883Z,98970.45
2023-11-20T13:19:43.386Z,98973.23
2023-11-20T13:22:14.890Z,98976.08
2023-11-20T13:24:56.610Z,98977.10
2023-11-20T13:27:28.898Z,98975.58
2023-11-20T13:30:16.503Z,98975.13
2023-11-20T13:32:48.380Z,98977.75
2023-11-20T13:35:21.036Z,98970.27
2023-11-20T13:37:57.653Z,98971.86
2023-11-20T13:40:37.037Z,98969.59
2023-11-20T13:43:14.657Z,98971.30
2023-11-20T13:45:48.375Z,98971.11
2023-11-20T13:48:19.705Z,98967.80
2023-11-20T13:50:51.292Z,98974.40
2023-11-20T13:53:25.266Z,98974.46
2023-11-20T13:55:58.510Z,98974.16
2023-11-20T13:58:30.593Z,98972.41
2023-11-20T14:01:03.615Z,98975.11
2023-11-20T14:03:35.239Z,98968.23
2023-11-20T14:06:08.670Z,98965.62
2023-11-20T14:08:40.075Z,98957.37
2023-11-20T14:11:11.381Z,98967.73
2023-11-20T14:13:43.628Z,98965.13
2023-11-20T14:16:15.164Z,98956.79
2023-11-20T14:18:46.683Z,98955.02
2023-11-20T14:21:18.652Z,98956.64
2023-11-20T14:23:49.983Z,98958.44
2023-11-20T14:26:29.824Z,98962.79
2023-11-20T14:29:06.626Z,98965.53
2023-11-20T14:31:39.976Z,98966.85
2023-11-20T14:34:11.592Z,98964.73
2023-11-20T14:36:43.042Z,98965.06
2023-11-20T14:39:14.565Z,98971.98
2023-11-20T14:41:45.942Z,98969.11
2023-11-20T14:44:17.285Z,98979.21
2023-11-20T14:46:48.644Z,98980.89
2023-11-20T14:49:20.005Z,98986.86
2023-11-20T14:51:52.297Z,98989.69
2023-11-20T14:54:24.322Z,98993.64
2023-11-20T14:56:55.636Z,98993.50
2023-11-20T14:59:27.304Z,98995.83
2023-11-20T15:01:58.655Z,98998.44
2023-11-20T15:04:30.060Z,98998.73
2023-11-20T15:07:01.606Z,99000.91
2023-11-20T15:09:33.312Z,99002.98
2023-11-20T15:12:05.741Z,98998.87
2023-11-20T15:14:39.350Z,98997.16
2023-11-20T15:17:10.915Z,98991.29
2023-11-20T15:19:42.299Z,98985.10
2023-11-20T15:22:13.652Z,98981.55
2023-11-20T15:24:44.996Z,98986.05
2023-11-20T15:27:16.465Z,98991.10
2023-11-20T15:29:47.786Z,98990.96
2023-11-20T15:32:19.063Z,98990.95
2023-11-20T15:34:50.495Z,98996.13
2023-11-20T15:37:22.100Z,98992.38
2023-11-20T15:39:53.770Z,98993.70
2023-11-20T15:42:25.143Z,98991.63
2023-11-20T15:44:56.568Z,98989.73
2023-11-20T15:47:28.103Z,98993.95
2023-11-20T15:50:00.583Z,98993.02
2023-11-20T15:52:32.036Z,98996.11
2023-11-20T15:55:03.798Z,98996.05
2023-11-20T15:57:35.378Z,98993.71
2023-11-20T16:00:12.632Z,98998.90
2023-11-20T16:02:44.522Z,98996.54
2023-11-20T16:05:16.063Z,98994.56
2023-11-20T16:07:47.437Z,98994.92
2023-11-20T16:10:18.929Z,98992.80
2023-11-20T16:12:50.307Z,98991.00
2023-11-20T16:15:21.790Z,98986.78
2023-11-20T16:17:53.205Z,98987.59
2023-11-20T16:20:24.718Z,98989.52
2023-11-20T16:22:56.176Z,98991.13
2023-11-20T16:25:36.409Z,98992.23
2023-11-20T16:28:13.893Z,98991.61
2023-11-20T16:30:45.876Z,98996.07
2023-11-20T16:33:17.317Z,98988.58
2023-11-20T16:35:48.957Z,98988.77
2023-11-20T16:38:20.305Z,98993.88
2023-11-20T16:40:51.661Z,98990.85
2023-11-20T16:43:23.424Z,98994.38
2023-11-20T16:45:54.801Z,98991.67
2023-11-20T16:48:27.261Z,98992.02
2023-11-20T16:50:58.648Z,98992.56
2023-11-20T16:53:29.982Z,98991.81
2023-11-20T16:56:01.370Z,98991.44
2023-11-20T16:58:32.778Z,98995.04
2023-11-20T17:01:04.920Z,98988.99
2023-11-20T17:03:36.547Z,98993.52
2023-11-20T17:06:09.376Z,98992.64
2023-11-20T17:08:40.705Z,98995.70
2023-11-20T17:11:11.996Z,98996.94
2023-11-20T17:13:43.980Z,98993.78
2023-11-20T17:16:16.037Z,98999.98
2023-11-20T17:18:48.214Z,99000.02
2023-11-20T17:21:19.521Z,98998.09
2023-11-20T17:23:50.917Z,98992.93
2023-11-20T17:26:22.149Z,98989.86
2023-11-20T17:28:54.067Z,98990.20
2023-11-20T17:31:27.741Z,98988.13
2023-11-20T17:34:00.547Z,98992.03
2023-11-20T17:36:31.966Z,98989.94
2023-11-20T17:39:03.652Z,98991.68
2023-11-20T17:41:34.890Z,98992.77
2023-11-20T17:44:06.690Z,98993.24
2023-11-20T17:46:39.628Z,99000.20
2023-11-20T17:49:11.143Z,98997.20
2023-11-20T17:51:49.745Z,98997.88
2023-11-20T17:54:21.024Z,98996.54
2023-11-20T17:56:52.344Z,98998.94
2023-11-20T17:59:23.656Z,99004.48
2023-11-20T18:01:56.504Z,99000.21
2023-11-20T18:04:28.338Z,98999.20
2023-11-20T18:06:59.883Z,98994.67
2023-11-20T18:09:31.299Z,98993.80
2023-11-20T18:12:02.660Z,98993.41
2023-11-20T18:14:33.921Z,98996.42
2023-11-20T18:17:06.118Z,99000.08
2023-11-20T18:19:37.457Z,98998.08
2023-11-20T18:22:11.443Z,99002.13
2023-11-20T18:24:44.008Z,99001.73
2023-11-20T18:27:15.338Z,98997.96
2023-11-20T18:29:46.726Z,98997.92
2023-11-20T18:32:18.814Z,99007.89
2023-11-20T18:34:51.509Z,99003.73
2023-11-20T18:37:22.876Z,99002.70
2023-11-20T18:39:54.786Z,99003.23
2023-11-20T18:42:25.942Z,98999.14
2023-11-20T18:44:57.162Z,99006.48
2023-11-20T18:47:29.498Z,98984.38
2023-11-20T18:50:03.716Z,99002.16
2023-11-20T18:52:35.128Z,98999.58
2023-11-20T18:55:07.481Z,99003.12
2023-11-20T18:57:44.975Z,99002.86
2023-11-20T19:00:19.487Z,99004.73
2023-11-20T19:02:53.158Z,99001.60
2023-11-20T19:05:25.196Z,99004.23
2023-11-20T19:07:57.608Z,98999.14
2023-11-20T19:10:29.706Z,99001.86
2023-11-20T19:13:01.616Z,99001.26
2023-11-20T19:15:33.734Z,99004.34
2023-11-20T19:18:06.930Z,99002.25
2023-11-20T19:20:38.261Z,99008.66
2023-11-20T19:23:09.796Z,99007.60
2023-11-20T19:25:41.639Z,99006.27
2023-11-20T19:28:13.847Z,98998.64
2023-11-20T19:30:45.310Z,98999.33
2023-11-20T19:33:16.849Z,99001.97
2023-11-20T19:35:48.207Z,99002.94
2023-11-20T19:38:19.851Z,99002.92
2023-11-20T19:40:51.165Z,99007.56
2023-11-20T19:43:22.809Z,99007.52
2023-11-20T19:45:54.441Z,99004.61
2023-11-20T19:48:26.258Z,99006.56
2023-11-20T19:50:57.669Z,99003.67
2023-11-20T19:53:29.075Z,99001.83
2023-11-20T19:56:00.344Z,99002.02
2023-11-20T19:58:31.751Z,98998.68
2023-11-20T20:01:03.411Z,99000.17
2023-11-20T20:03:34.996Z,99000.54
2023-11-20T20:06:08.592Z,99001.87
2023-11-20T20:08:40.698Z,99003.67
2023-11-20T20:11:12.042Z,99006.27
2023-11-20T20:13:43.288Z,99007.91
2023-11-20T20:16:14.738Z,99008.30
2023-11-20T20:18:46.194Z,98999.86
2023-11-20T20:21:18.021Z,99003.66
2023-11-20T20:26:30.712Z,99004.77
2023-11-20T20:29:02.386Z,99005.11
2023-11-20T20:31:34.659Z,99009.17
2023-11-20T20:34:06.899Z,99008.78
2023-11-20T20:36:38.442Z,99006.38
2023-11-20T20:39:10.146Z,99010.14
2023-11-20T20:41:41.540Z,99009.47
2023-11-20T20:44:13.670Z,99011.70
2023-11-20T20:46:45.278Z,99010.64
2023-11-20T20:49:16.663Z,99004.48
2023-11-20T20:51:47.913Z,99005.80
2023-11-20T20:54:20.236Z,99005.34
2023-11-20T20:56:51.489Z,99002.39
2023-11-20T20:59:22.684Z,99000.39
2023-11-20T21:01:54.054Z,99001.52
2023-11-20T21:04:25.946Z,99002.53
2023-11-20T21:06:58.391Z,99002.54
2023-11-20T21:09:29.779Z,99001.21
2023-11-20T21:12:01.086Z,98999.81
2023-11-20T21:14:32.354Z,99003.51
2023-11-20T21:17:04.945Z,99004.21
2023-11-20T21:19:36.537Z,98996.77
2023-11-20T21:22:09.550Z,98995.38
2023-11-20T21:24:40.941Z,99000.77
2023-11-20T21:27:13.142Z,98998.38
2023-11-20T21:29:45.030Z,99000.17
2023-11-20T21:32:16.328Z,99001.02
2023-11-20T21:34:55.412Z,99001.45
2023-11-20T21:37:34.104Z,99002.94
2023-11-20T21:40:07.359Z,99005.57
2023-11-20T21:42:38.884Z,99005.86
2023-11-20T21:45:11.945Z,99009.13
2023-11-20T21:47:43.419Z,99008.88
2023-11-20T21:50:14.725Z,99007.71
2023-11-20T21:52:46.014Z,99007.20
2023-11-20T21:55:17.456Z,99008.68
2023-11-20T21:57:50.971Z,99013.39
2023-11-20T22:00:24.408Z,99008.59
2023-11-20T22:02:57.503Z,99005.55
2023-11-20T22:05:29.074Z,99002.48
2023-11-20T22:08:00.360Z,98996.42
2023-11-20T22:10:31.657Z,99001.68
2023-11-20T22:13:03.980Z,99005.39
2023-11-20T22:15:35.302Z,99006.31
2023-11-20T22:18:06.955Z,99006.29
2023-11-20T22:20:38.305Z,99008.76
2023-11-20T22:23:09.617Z,99011.77
2023-11-20T22:25:40.968Z,99020.42
2023-11-20T22:28:12.688Z,99020.40
2023-11-20T22:30:44.298Z,99022.02
2023-11-20T22:33:15.761Z,99020.08
2023-11-20T22:35:47.680Z,99020.63
2023-11-20T22:38:19.357Z,99018.41
2023-11-20T22:40:51.065Z,99020.88
2023-11-20T22:43:22.484Z,99019.26
2023-11-20T22:45:53.784Z,99021.01
2023-11-20T22:48:25.111Z,99025.29
2023-11-20T22:50:57.187Z,99024.85
2023-11-20T22:53:29.107Z,99030.55
2023-11-20T22:56:00.459Z,99032.66
2023-11-20T22:58:32.219Z,99037.23
2023-11-20T23:01:06.899Z,99030.40
2023-11-20T23:03:38.461Z,99030.16
2023-11-20T23:06:10.962Z,99025.73
2023-11-20T23:08:43.121Z,99027.32
2023-11-20T23:11:14.816Z,99031.36
2023-11-20T23:13:46.219Z,99029.61
2023-11-20T23:16:17.781Z,99036.36
2023-11-20T23:18:49.372Z,99038.22
2023-11-20T23:21:21.411Z,99032.80
2023-11-20T23:23:53.381Z,99038.35
2023-11-20T23:26:26.336Z,99038.80
2023-11-20T23:28:59.632Z,99045.69
2023-11-20T23:31:31.355Z,99048.46
2023-11-20T23:34:02.864Z,99053.90
2023-11-20T23:36:34.280Z,99057.34
2023-11-20T23:39:08.115Z,99058.34
2023-11-20T23:41:39.499Z,99060.02
2023-11-20T23:44:11.003Z,99056.04
2023-11-20T23:46:43.470Z,99052.67
2023-11-20T23:49:14.907Z,99053.09
2023-11-20T23:51:46.252Z,99049.33
2023-11-20T23:54:18.198Z,99050.31
2023-11-20T23:56:49.518Z,99051.55
2023-11-20T23:59:21.589Z,99054.02
